Time;durP1;ratioP1;P1;durP2;ratioP2;P2;SDS_P1;SDS_P2;PMS_P1;PMS_P2;Temp;Humidity;BMP_temperature;BMP_pressure;BME280_temperature;BME280_humidity;BME280_pressure;Samples;Min_cycle;Max_cycle;Signal;HPM_P1;HPM_P2
2022/11/12 00:00:05;;;;;;;;;;;4.80;99.90;;;;;;1907751;74;20115;-71
2022/11/12 00:02:32;;;;;;;;;;;4.80;99.90;;;;;;1906124;75;20159;-71
2022/11/12 00:04:58;;;;;;;;;;;4.70;99.90;;;;;;1924210;73;20134;-71
2022/11/12 00:07:25;;;;;;;;;;;4.80;99.90;;;;;;1918154;73;20121;-71
2022/11/12 00:09:52;;;;;;;;;;;4.70;99.90;;;;;;1920702;74;20137;-72
2022/11/12 00:12:18;;;;;;;;;;;4.70;99.90;;;;;;1906987;73;20121;-71
2022/11/12 00:14:45;;;;;;;;;;;4.60;99.90;;;;;;1909041;73;20398;-71
2022/11/12 00:17:12;;;;;;;;;;;4.60;99.90;;;;;;1929347;74;20152;-70
2022/11/12 00:19:39;;;;;;;;;;;4.60;99.90;;;;;;1905849;73;20330;-70
2022/11/12 00:22:05;;;;;;;;;;;4.60;99.90;;;;;;1922487;73;20152;-72
2022/11/12 00:24:32;;;;;;;;;;;4.60;99.90;;;;;;1912577;73;20329;-72
2022/11/12 00:26:59;;;;;;;;;;;4.60;99.90;;;;;;1909203;74;20114;-70
2022/11/12 00:29:25;;;;;;;;;;;4.50;99.90;;;;;;1906858;74;20338;-72
2022/11/12 00:31:52;;;;;;;;;;;4.50;99.90;;;;;;1934300;74;20151;-72
2022/11/12 00:34:19;;;;;;;;;;;4.50;99.90;;;;;;1924686;73;20365;-72
2022/11/12 00:36:45;;;;;;;;;;;4.50;99.90;;;;;;1912594;73;20204;-71
2022/11/12 00:39:12;;;;;;;;;;;4.40;99.90;;;;;;1905095;73;20329;-70
2022/11/12 00:41:39;;;;;;;;;;;4.40;99.90;;;;;;1905744;74;20212;-68
2022/11/12 00:44:05;;;;;;;;;;;4.40;99.90;;;;;;1912260;74;20330;-70
2022/11/12 00:46:32;;;;;;;;;;;4.40;99.90;;;;;;1913519;73;20118;-70
2022/11/12 00:48:59;;;;;;;;;;;4.40;99.90;;;;;;1917808;74;20175;-71
2022/11/12 00:51:26;;;;;;;;;;;4.40;99.90;;;;;;1911822;74;20172;-71
2022/11/12 00:53:52;;;;;;;;;;;4.30;99.90;;;;;;1927293;74;20172;-70
2022/11/12 00:56:19;;;;;;;;;;;4.30;99.90;;;;;;1915583;73;20178;-70
2022/11/12 00:58:46;;;;;;;;;;;4.30;99.90;;;;;;1919621;74;20129;-70
2022/11/12 01:01:13;;;;;;;;;;;4.20;99.90;;;;;;1903562;74;20160;-69
2022/11/12 01:03:40;;;;;;;;;;;4.20;99.90;;;;;;1920752;73;20122;-70
2022/11/12 01:06:11;;;;;;;;;;;4.30;99.90;;;;;;1917550;74;20235;-70
2022/11/12 01:08:38;;;;;;;;;;;4.20;99.90;;;;;;1921714;73;20149;-71
2022/11/12 01:11:08;;;;;;;;;;;4.10;99.90;;;;;;1909481;73;20249;-70
2022/11/12 01:13:35;;;;;;;;;;;4.20;99.90;;;;;;1916249;73;20186;-71
2022/11/12 01:16:05;;;;;;;;;;;4.20;99.90;;;;;;1924482;73;20118;-71
2022/11/12 01:18:32;;;;;;;;;;;4.00;99.90;;;;;;1906439;74;20129;-72
2022/11/12 01:21:00;;;;;;;;;;;3.90;99.90;;;;;;1918552;73;20343;-71
2022/11/12 01:23:26;;;;;;;;;;;3.90;99.90;;;;;;1925705;73;20164;-71
2022/11/12 01:25:53;;;;;;;;;;;3.90;99.90;;;;;;1920083;74;20147;-71
2022/11/12 01:28:20;;;;;;;;;;;4.00;99.90;;;;;;1924102;73;20115;-71
2022/11/12 01:30:46;;;;;;;;;;;3.90;99.90;;;;;;1917384;74;20336;-69
2022/11/12 01:33:13;;;;;;;;;;;3.90;99.90;;;;;;1915304;73;20153;-70
2022/11/12 01:35:40;;;;;;;;;;;3.80;99.90;;;;;;1908541;73;20183;-71
2022/11/12 01:38:06;;;;;;;;;;;3.90;99.90;;;;;;1929487;74;20116;-71
2022/11/12 01:40:33;;;;;;;;;;;3.90;99.90;;;;;;1919772;73;20365;-71
2022/11/12 01:43:00;;;;;;;;;;;3.90;99.90;;;;;;1935097;73;20122;-71
2022/11/12 01:45:27;;;;;;;;;;;3.80;99.90;;;;;;1923835;72;20372;-69
2022/11/12 01:47:54;;;;;;;;;;;3.80;99.90;;;;;;1918714;72;20349;-71
2022/11/12 01:50:22;;;;;;;;;;;3.80;99.90;;;;;;1906874;74;20268;-70
2022/11/12 01:52:50;;;;;;;;;;;3.80;99.90;;;;;;1908719;73;20106;-71
2022/11/12 01:55:18;;;;;;;;;;;3.80;99.90;;;;;;1918444;73;20118;-70
2022/11/12 01:57:52;;;;;;;;;;;3.80;99.90;;;;;;1898592;73;20187;-71
2022/11/12 02:00:18;;;;;;;;;;;3.80;99.90;;;;;;1912372;74;20160;-71
2022/11/12 02:02:46;;;;;;;;;;;3.70;99.90;;;;;;1924981;73;20168;-70
2022/11/12 02:05:12;;;;;;;;;;;3.80;99.90;;;;;;1908872;74;20122;-70
2022/11/12 02:07:40;;;;;;;;;;;3.80;99.90;;;;;;1921642;74;20154;-71
2022/11/12 02:10:08;;;;;;;;;;;3.90;99.90;;;;;;1926278;74;20106;-70
2022/11/12 02:15:20;;;;;;;;;;;3.80;99.90;;;;;;1926054;74;20159;-70
2022/11/12 02:17:46;;;;;;;;;;;3.80;99.90;;;;;;1919811;73;20345;-70
2022/11/12 02:20:13;;;;;;;;;;;3.80;99.90;;;;;;1919622;73;20161;-71
2022/11/12 02:22:40;;;;;;;;;;;3.90;99.90;;;;;;1920990;73;20110;-71
2022/11/12 02:25:08;;;;;;;;;;;3.80;99.90;;;;;;1931431;73;20124;-71
2022/11/12 02:27:34;;;;;;;;;;;3.80;99.90;;;;;;1929006;73;20211;-71
2022/11/12 02:30:01;;;;;;;;;;;3.80;99.90;;;;;;1928850;74;20187;-70
2022/11/12 02:32:28;;;;;;;;;;;3.80;99.90;;;;;;1924162;73;20233;-71
2022/11/12 02:34:55;;;;;;;;;;;3.80;99.90;;;;;;1900942;74;20157;-70
2022/11/12 02:37:21;;;;;;;;;;;3.80;99.90;;;;;;1916492;74;20152;-71
2022/11/12 02:39:48;;;;;;;;;;;3.80;99.90;;;;;;1921674;73;20475;-70
2022/11/12 02:42:15;;;;;;;;;;;3.80;99.90;;;;;;1915130;74;20164;-70
2022/11/12 02:44:41;;;;;;;;;;;3.90;99.90;;;;;;1923431;74;20351;-70
2022/11/12 02:47:08;;;;;;;;;;;3.80;99.90;;;;;;1925048;74;20176;-71
2022/11/12 02:49:35;;;;;;;;;;;3.90;99.90;;;;;;1928816;73;20364;-70
2022/11/12 02:52:01;;;;;;;;;;;3.90;99.90;;;;;;1938358;74;20125;-71
2022/11/12 02:54:28;;;;;;;;;;;4.00;99.90;;;;;;1936315;73;20320;-70
2022/11/12 02:56:55;;;;;;;;;;;4.00;99.90;;;;;;1906344;73;20114;-71
2022/11/12 02:59:21;;;;;;;;;;;3.90;99.90;;;;;;1914721;74;20363;-71
2022/11/12 03:01:48;;;;;;;;;;;4.00;99.90;;;;;;1924271;74;20173;-71
2022/11/12 03:04:15;;;;;;;;;;;4.00;99.90;;;;;;1908526;74;20353;-71
2022/11/12 03:06:42;;;;;;;;;;;4.00;99.90;;;;;;1913262;73;20148;-71
2022/11/12 03:09:08;;;;;;;;;;;4.10;99.90;;;;;;1917060;74;20385;-70
2022/11/12 03:11:35;;;;;;;;;;;4.00;99.90;;;;;;1933636;74;20215;-70
2022/11/12 03:14:02;;;;;;;;;;;4.10;99.90;;;;;;1921126;73;20380;-70
2022/11/12 03:16:28;;;;;;;;;;;4.10;99.90;;;;;;1924369;74;20200;-71
2022/11/12 03:18:55;;;;;;;;;;;4.10;99.90;;;;;;1919394;73;20200;-70
2022/11/12 03:21:22;;;;;;;;;;;4.10;99.90;;;;;;1935533;73;20162;-70
2022/11/12 03:23:48;;;;;;;;;;;4.10;99.90;;;;;;1940835;73;20221;-71
2022/11/12 03:26:15;;;;;;;;;;;4.10;99.90;;;;;;1914277;74;20142;-71
2022/11/12 03:28:42;;;;;;;;;;;4.00;99.90;;;;;;1931071;73;20154;-70
2022/11/12 03:31:10;;;;;;;;;;;4.00;99.90;;;;;;1914132;74;20238;-70
2022/11/12 03:33:37;;;;;;;;;;;4.10;99.90;;;;;;1929188;73;20242;-70
2022/11/12 03:36:04;;;;;;;;;;;4.20;99.90;;;;;;1900475;74;20121;-70
2022/11/12 03:38:31;;;;;;;;;;;4.10;99.90;;;;;;1921125;73;20122;-69
2022/11/12 03:40:57;;;;;;;;;;;4.10;99.90;;;;;;1933823;73;20329;-70
2022/11/12 03:43:24;;;;;;;;;;;4.10;99.90;;;;;;1907725;73;20118;-69
2022/11/12 03:45:51;;;;;;;;;;;3.90;99.90;;;;;;1908561;73;20409;-70
2022/11/12 03:48:17;;;;;;;;;;;4.00;99.90;;;;;;1919160;73;20156;-69
2022/11/12 03:50:44;;;;;;;;;;;3.90;99.90;;;;;;1921964;74;20375;-71
2022/11/12 03:53:11;;;;;;;;;;;3.90;99.90;;;;;;1911436;74;20122;-72
2022/11/12 03:55:37;;;;;;;;;;;3.80;99.90;;;;;;1923349;74;20418;-71
2022/11/12 03:58:04;;;;;;;;;;;3.90;99.90;;;;;;1928256;74;20122;-71
2022/11/12 04:00:31;;;;;;;;;;;3.90;99.90;;;;;;1920787;73;20353;-71
2022/11/12 04:02:58;;;;;;;;;;;4.00;99.90;;;;;;1907898;74;20228;-71
2022/11/12 04:10:56;;;;;;;;;;;3.90;99.90;;;;;;1926741;74;20151;-72
2022/11/12 04:13:28;;;;;;;;;;;3.90;99.90;;;;;;1916388;74;20122;-71
2022/11/12 04:21:51;;;;;;;;;;;3.90;99.90;;;;;;1922799;73;20148;-71
2022/11/12 04:27:04;;;;;;;;;;;3.80;99.90;;;;;;1914823;74;20167;-71
2022/11/12 04:32:15;;;;;;;;;;;3.90;99.90;;;;;;1924093;73;20122;-72
2022/11/12 04:34:42;;;;;;;;;;;3.80;99.90;;;;;;1905961;74;20356;-71
2022/11/12 04:37:09;;;;;;;;;;;3.90;99.90;;;;;;1918560;73;20151;-71
2022/11/12 04:39:35;;;;;;;;;;;3.90;99.90;;;;;;1914583;74;20350;-70
2022/11/12 04:45:00;;;;;;;;;;;4.10;99.90;;;;;;1909576;74;20342;-72
2022/11/12 04:47:28;;;;;;;;;;;4.30;99.90;;;;;;1920955;74;20118;-72
2022/11/12 04:49:54;;;;;;;;;;;4.30;99.90;;;;;;1926647;74;20198;-71
2022/11/12 04:52:21;;;;;;;;;;;4.20;99.90;;;;;;1924188;74;20151;-71
2022/11/12 04:54:48;;;;;;;;;;;4.20;99.90;;;;;;1911015;74;20212;-71
2022/11/12 04:57:15;;;;;;;;;;;4.20;99.90;;;;;;1920104;73;20313;-71
2022/11/12 04:59:41;;;;;;;;;;;4.10;99.90;;;;;;1936599;74;20124;-72
2022/11/12 05:02:08;;;;;;;;;;;4.10;99.90;;;;;;1935998;73;20221;-71
2022/11/12 05:04:35;;;;;;;;;;;4.10;99.90;;;;;;1918380;73;20198;-71
2022/11/12 05:07:01;;;;;;;;;;;4.10;99.90;;;;;;1923969;73;20125;-71
2022/11/12 05:09:28;;;;;;;;;;;4.00;99.90;;;;;;1912595;72;20130;-72
2022/11/12 05:11:55;;;;;;;;;;;4.00;99.90;;;;;;1927346;73;20116;-71
2022/11/12 05:14:23;;;;;;;;;;;4.00;99.90;;;;;;1923204;73;20111;-72
2022/11/12 05:16:50;;;;;;;;;;;4.00;99.90;;;;;;1938468;73;20118;-71
2022/11/12 05:19:17;;;;;;;;;;;4.00;99.90;;;;;;1912789;73;20168;-71
2022/11/12 05:24:28;;;;;;;;;;;4.00;99.90;;;;;;1929575;73;20117;-71
2022/11/12 05:26:55;;;;;;;;;;;4.10;99.90;;;;;;1930728;74;20111;-71
2022/11/12 05:29:22;;;;;;;;;;;4.00;99.90;;;;;;1922316;73;20179;-71
2022/11/12 05:31:48;;;;;;;;;;;4.20;99.90;;;;;;1938549;72;20144;-71
2022/11/12 05:34:15;;;;;;;;;;;4.10;99.90;;;;;;1921438;74;20345;-71
2022/11/12 05:36:42;;;;;;;;;;;4.00;99.90;;;;;;1935367;73;20125;-69
2022/11/12 05:39:09;;;;;;;;;;;4.00;99.90;;;;;;1935117;73;20350;-71
2022/11/12 05:41:35;;;;;;;;;;;4.10;99.90;;;;;;1910948;73;20117;-70
2022/11/12 05:44:02;;;;;;;;;;;3.90;99.90;;;;;;1917370;74;20454;-70
2022/11/12 05:46:29;;;;;;;;;;;3.90;99.90;;;;;;1920313;72;20244;-69
2022/11/12 05:48:55;;;;;;;;;;;3.90;99.90;;;;;;1925990;74;20118;-70
2022/11/12 05:51:22;;;;;;;;;;;3.90;99.90;;;;;;1911147;73;20132;-71
2022/11/12 05:53:49;;;;;;;;;;;3.70;99.90;;;;;;1921440;73;20133;-71
2022/11/12 05:56:15;;;;;;;;;;;3.80;99.90;;;;;;1938173;73;20194;-71
2022/11/12 05:58:42;;;;;;;;;;;4.00;99.90;;;;;;1926703;73;20152;-70
2022/11/12 06:01:09;;;;;;;;;;;4.00;99.90;;;;;;1931284;74;20180;-69
2022/11/12 06:03:36;;;;;;;;;;;4.00;99.90;;;;;;1911966;73;20153;-72
2022/11/12 06:06:02;;;;;;;;;;;3.90;99.90;;;;;;1921185;74;20126;-70
2022/11/12 06:08:29;;;;;;;;;;;4.00;99.90;;;;;;1913683;74;20164;-70
2022/11/12 06:10:56;;;;;;;;;;;4.10;99.90;;;;;;1911580;73;20154;-71
2022/11/12 06:13:23;;;;;;;;;;;4.00;99.90;;;;;;1920949;74;20117;-69
2022/11/12 06:15:50;;;;;;;;;;;3.90;99.90;;;;;;1937893;72;20365;-70
2022/11/12 06:18:17;;;;;;;;;;;3.90;99.90;;;;;;1906892;72;20376;-72
2022/11/12 06:20:44;;;;;;;;;;;3.90;99.90;;;;;;1908626;73;20126;-70
2022/11/12 06:23:10;;;;;;;;;;;3.90;99.90;;;;;;1899815;74;20341;-70
2022/11/12 06:25:37;;;;;;;;;;;4.00;99.90;;;;;;1914824;74;20117;-71
2022/11/12 06:28:04;;;;;;;;;;;4.00;99.90;;;;;;1930282;73;20356;-68
2022/11/12 06:30:31;;;;;;;;;;;3.90;99.90;;;;;;1924921;73;20110;-67
2022/11/12 06:32:57;;;;;;;;;;;3.90;99.90;;;;;;1939586;73;20109;-68
2022/11/12 06:35:24;;;;;;;;;;;3.80;99.90;;;;;;1918035;73;20122;-68
2022/11/12 06:37:51;;;;;;;;;;;3.90;99.90;;;;;;1934234;73;20154;-66
2022/11/12 06:40:17;;;;;;;;;;;3.90;99.90;;;;;;1885650;75;20318;-67
2022/11/12 06:42:44;;;;;;;;;;;3.90;99.90;;;;;;1868180;74;20132;-69
2022/11/12 06:45:11;;;;;;;;;;;3.90;99.90;;;;;;1863815;74;20389;-71
2022/11/12 06:47:37;;;;;;;;;;;4.00;99.90;;;;;;1873050;76;20116;-70
2022/11/12 06:50:04;;;;;;;;;;;4.10;99.90;;;;;;1870225;75;20412;-70
2022/11/12 06:52:31;;;;;;;;;;;4.10;99.90;;;;;;1864383;74;20249;-70
2022/11/12 06:54:58;;;;;;;;;;;4.00;99.90;;;;;;1883033;74;20259;-73
2022/11/12 06:57:24;;;;;;;;;;;4.00;99.90;;;;;;1858925;76;20121;-73
2022/11/12 06:59:52;;;;;;;;;;;4.10;99.90;;;;;;1860124;74;20137;-84
2022/11/12 07:02:21;;;;;;;;;;;4.10;99.90;;;;;;1861589;75;20272;-76
2022/11/12 07:04:47;;;;;;;;;;;4.00;99.90;;;;;;1873018;75;20175;-73
2022/11/12 07:07:14;;;;;;;;;;;4.00;99.90;;;;;;1875415;74;20184;-75
2022/11/12 07:09:41;;;;;;;;;;;4.00;99.90;;;;;;1880782;74;20403;-75
2022/11/12 07:12:08;;;;;;;;;;;4.20;99.90;;;;;;1877463;75;20144;-75
2022/11/12 07:14:34;;;;;;;;;;;4.20;99.90;;;;;;1878901;75;20398;-75
2022/11/12 07:17:01;;;;;;;;;;;4.10;99.90;;;;;;1863802;75;20203;-75
2022/11/12 07:19:28;;;;;;;;;;;4.30;99.90;;;;;;1888771;74;20136;-75
2022/11/12 07:21:54;;;;;;;;;;;4.30;99.90;;;;;;1882706;75;20154;-75
2022/11/12 07:24:21;;;;;;;;;;;4.10;99.90;;;;;;1868520;75;20176;-76
2022/11/12 07:27:09;;;;;;;;;;;4.10;99.90;;;;;;1871679;74;20153;-74
2022/11/12 07:29:36;;;;;;;;;;;4.20;99.90;;;;;;1850600;74;20211;-75
2022/11/12 07:32:03;;;;;;;;;;;4.30;99.90;;;;;;1875473;75;20144;-73
2022/11/12 07:34:29;;;;;;;;;;;4.30;99.90;;;;;;1878225;74;20167;-75
2022/11/12 07:36:56;;;;;;;;;;;4.30;99.90;;;;;;1863144;74;20157;-75
2022/11/12 07:39:23;;;;;;;;;;;4.40;99.90;;;;;;1860939;75;20120;-74
2022/11/12 07:41:50;;;;;;;;;;;4.40;99.90;;;;;;1860326;76;20261;-74
2022/11/12 07:44:17;;;;;;;;;;;4.40;99.90;;;;;;1878330;74;20167;-75
2022/11/12 07:46:43;;;;;;;;;;;4.30;99.90;;;;;;1879866;75;20218;-74
2022/11/12 07:49:10;;;;;;;;;;;4.30;99.90;;;;;;1881244;74;20145;-74
2022/11/12 07:51:37;;;;;;;;;;;4.40;99.90;;;;;;1870766;74;20156;-72
2022/11/12 07:54:04;;;;;;;;;;;4.40;99.90;;;;;;1877676;75;20116;-75
2022/11/12 07:56:31;;;;;;;;;;;4.60;99.90;;;;;;1881049;74;20148;-73
2022/11/12 07:58:57;;;;;;;;;;;4.70;99.90;;;;;;1873808;75;20383;-76
2022/11/12 08:01:31;;;;;;;;;;;4.90;99.90;;;;;;1877074;76;20194;-72
2022/11/12 08:03:59;;;;;;;;;;;4.70;99.90;;;;;;1865784;74;20354;-74
2022/11/12 08:06:26;;;;;;;;;;;4.80;99.90;;;;;;1873951;74;20358;-74
2022/11/12 08:08:53;;;;;;;;;;;4.60;99.90;;;;;;1865215;74;20157;-73
2022/11/12 08:11:20;;;;;;;;;;;4.60;99.90;;;;;;1873252;74;20161;-73
2022/11/12 08:13:47;;;;;;;;;;;4.80;99.90;;;;;;1878431;74;20189;-74
2022/11/12 08:16:14;;;;;;;;;;;4.70;99.90;;;;;;1876034;74;20400;-73
2022/11/12 08:18:41;;;;;;;;;;;4.70;99.90;;;;;;1862732;75;20158;-73
2022/11/12 08:21:08;;;;;;;;;;;4.90;99.90;;;;;;1874531;74;20138;-77
2022/11/12 08:23:35;;;;;;;;;;;5.10;99.90;;;;;;1868533;75;20118;-73
2022/11/12 08:26:02;;;;;;;;;;;5.20;99.90;;;;;;1868351;75;20174;-73
2022/11/12 08:28:29;;;;;;;;;;;5.20;99.90;;;;;;1877994;74;20191;-76
2022/11/12 08:30:56;;;;;;;;;;;5.10;99.90;;;;;;1880564;75;20128;-73
2022/11/12 08:33:22;;;;;;;;;;;5.30;99.90;;;;;;1879467;75;20151;-74
2022/11/12 08:35:49;;;;;;;;;;;5.20;99.90;;;;;;1875940;74;20330;-74
2022/11/12 08:38:16;;;;;;;;;;;4.90;99.90;;;;;;1867277;74;20140;-74
2022/11/12 08:40:45;;;;;;;;;;;5.00;99.90;;;;;;1869957;74;20191;-73
2022/11/12 08:43:13;;;;;;;;;;;5.20;99.90;;;;;;1880583;75;20129;-73
2022/11/12 08:45:40;;;;;;;;;;;5.10;99.90;;;;;;1881314;74;20275;-75
2022/11/12 08:48:07;;;;;;;;;;;4.90;99.90;;;;;;1879729;74;20416;-74
2022/11/12 08:50:34;;;;;;;;;;;5.00;99.90;;;;;;1872552;75;20370;-75
2022/11/12 08:53:01;;;;;;;;;;;5.10;99.90;;;;;;1874038;74;20157;-73
2022/11/12 08:55:29;;;;;;;;;;;5.20;99.90;;;;;;1875557;75;20111;-73
2022/11/12 08:58:00;;;;;;;;;;;5.30;99.90;;;;;;1886456;75;20120;-72
2022/11/12 09:00:24;;;;;;;;;;;5.20;99.90;;;;;;1881541;75;20244;-73
2022/11/12 09:02:51;;;;;;;;;;;5.50;99.90;;;;;;1867412;74;20222;-76
2022/11/12 09:05:18;;;;;;;;;;;5.50;99.90;;;;;;1870694;75;20197;-76
2022/11/12 09:07:44;;;;;;;;;;;5.50;99.90;;;;;;1871896;75;20166;-76
2022/11/12 09:10:12;;;;;;;;;;;5.50;99.90;;;;;;1866257;75;20185;-76
2022/11/12 09:12:38;;;;;;;;;;;5.60;99.90;;;;;;1891244;74;20123;-77
2022/11/12 09:15:05;;;;;;;;;;;5.90;99.90;;;;;;1881574;75;20189;-76
2022/11/12 09:17:34;;;;;;;;;;;5.50;99.90;;;;;;1885843;74;20120;-74
2022/11/12 09:20:00;;;;;;;;;;;5.70;99.90;;;;;;1866383;74;20144;-76
2022/11/12 09:22:27;;;;;;;;;;;5.70;99.90;;;;;;1869936;75;20179;-75
2022/11/12 09:24:54;;;;;;;;;;;5.60;99.90;;;;;;1863406;76;20164;-75
2022/11/12 09:27:21;;;;;;;;;;;5.70;99.90;;;;;;1884208;75;20134;-76
2022/11/12 09:29:47;;;;;;;;;;;5.60;99.90;;;;;;1890959;74;20123;-76
2022/11/12 09:32:14;;;;;;;;;;;5.90;99.90;;;;;;1879118;74;20213;-76
2022/11/12 09:34:41;;;;;;;;;;;5.90;99.90;;;;;;1881731;74;20161;-76
2022/11/12 09:37:07;;;;;;;;;;;5.90;99.90;;;;;;1880230;75;20414;-77
2022/11/12 09:39:34;;;;;;;;;;;6.20;99.90;;;;;;1880609;75;20137;-76
2022/11/12 09:42:02;;;;;;;;;;;6.30;99.90;;;;;;1876409;74;20401;-77
2022/11/12 09:44:29;;;;;;;;;;;6.30;99.90;;;;;;1889876;76;20215;-77
2022/11/12 09:46:59;;;;;;;;;;;6.10;99.90;;;;;;1884928;74;20419;-77
2022/11/12 09:49:31;;;;;;;;;;;6.20;99.90;;;;;;1863979;75;20133;-76
2022/11/12 09:51:59;;;;;;;;;;;6.20;99.90;;;;;;1878347;75;20151;-76
2022/11/12 09:54:27;;;;;;;;;;;6.40;99.90;;;;;;1863400;74;20193;-76
2022/11/12 09:56:54;;;;;;;;;;;6.00;99.90;;;;;;1870646;74;20253;-74
2022/11/12 09:59:21;;;;;;;;;;;5.90;99.90;;;;;;1866937;76;20161;-75
2022/11/12 10:01:56;;;;;;;;;;;5.90;99.90;;;;;;1866683;75;20166;-75
2022/11/12 10:04:41;;;;;;;;;;;6.00;99.90;;;;;;1863484;74;20163;-75
2022/11/12 10:07:15;;;;;;;;;;;6.00;99.90;;;;;;1874487;75;20372;-76
2022/11/12 10:09:43;;;;;;;;;;;5.80;99.90;;;;;;1879825;75;20168;-73
2022/11/12 10:12:33;;;;;;;;;;;6.00;99.90;;;;;;1872739;74;20239;-74
2022/11/12 10:18:21;;;;;;;;;;;6.30;99.90;;;;;;1870817;74;20249;-73
2022/11/12 10:21:04;;;;;;;;;;;6.60;99.90;;;;;;1865043;74;20149;-75
2022/11/12 10:23:35;;;;;;;;;;;6.90;99.90;;;;;;1883187;74;20269;-74
2022/11/12 10:26:04;;;;;;;;;;;6.80;99.90;;;;;;1894566;74;20352;-73
2022/11/12 10:28:34;;;;;;;;;;;7.00;99.90;;;;;;1872771;75;20239;-70
2022/11/12 10:31:01;;;;;;;;;;;7.10;99.90;;;;;;1855508;74;20193;-72
2022/11/12 10:33:29;;;;;;;;;;;6.80;99.90;;;;;;1894322;75;20133;-71
2022/11/12 10:35:56;;;;;;;;;;;7.00;99.90;;;;;;1874137;76;20354;-73
2022/11/12 10:38:24;;;;;;;;;;;7.40;99.90;;;;;;1874236;74;20214;-72
2022/11/12 10:40:51;;;;;;;;;;;7.40;99.90;;;;;;1862704;74;20394;-72
2022/11/12 10:43:19;;;;;;;;;;;7.50;99.90;;;;;;1868153;74;20179;-72
2022/11/12 10:45:47;;;;;;;;;;;7.60;99.90;;;;;;1877198;74;20170;-70
2022/11/12 10:48:23;;;;;;;;;;;7.80;99.90;;;;;;1866106;74;20170;-71
2022/11/12 10:51:09;;;;;;;;;;;8.20;99.90;;;;;;1877504;75;20250;-71
2022/11/12 10:53:37;;;;;;;;;;;8.20;99.90;;;;;;1874943;75;20187;-72
2022/11/12 10:56:04;;;;;;;;;;;8.60;99.90;;;;;;1863394;75;20140;-72
2022/11/12 10:58:31;;;;;;;;;;;8.80;99.90;;;;;;1875763;75;20133;-71
2022/11/12 11:00:59;;;;;;;;;;;8.90;99.90;;;;;;1888544;76;20367;-72
2022/11/12 11:03:36;;;;;;;;;;;8.90;99.90;;;;;;1888949;74;20389;-72
2022/11/12 11:06:03;;;;;;;;;;;9.10;99.90;;;;;;1885910;75;20191;-72
2022/11/12 11:08:31;;;;;;;;;;;9.10;99.90;;;;;;1888868;75;20141;-71
2022/11/12 11:11:17;;;;;;;;;;;9.30;99.90;;;;;;1882993;75;20223;-73
2022/11/12 11:13:44;;;;;;;;;;;9.70;99.90;;;;;;1881391;75;20147;-73
2022/11/12 11:16:16;;;;;;;;;;;9.90;99.90;;;;;;1884657;75;20219;-72
2022/11/12 11:18:44;;;;;;;;;;;10.10;99.90;;;;;;1880691;75;20223;-73
2022/11/12 11:21:21;;;;;;;;;;;10.00;99.90;;;;;;1879912;75;20146;-73
2022/11/12 11:23:55;;;;;;;;;;;10.00;99.90;;;;;;1880140;74;20179;-71
2022/11/12 11:26:24;;;;;;;;;;;10.20;99.90;;;;;;1882107;75;20461;-70
2022/11/12 11:29:01;;;;;;;;;;;10.50;99.90;;;;;;1888209;75;20149;-70
2022/11/12 11:31:29;;;;;;;;;;;10.80;99.90;;;;;;1887350;74;20156;-73
2022/11/12 11:34:13;;;;;;;;;;;10.90;99.90;;;;;;1883265;75;20155;-72
2022/11/12 11:36:41;;;;;;;;;;;10.80;99.90;;;;;;1886177;75;20143;-71
2022/11/12 11:39:26;;;;;;;;;;;10.80;99.90;;;;;;1883204;74;20160;-70
2022/11/12 11:42:03;;;;;;;;;;;11.00;99.90;;;;;;1889125;75;20211;-71
2022/11/12 11:44:31;;;;;;;;;;;11.00;99.90;;;;;;1883464;75;20183;-70
2022/11/12 11:47:00;;;;;;;;;;;10.80;99.90;;;;;;1888777;75;20378;-69
2022/11/12 11:49:46;;;;;;;;;;;10.60;99.90;;;;;;1888138;75;20145;-70
2022/11/12 11:52:17;;;;;;;;;;;10.80;99.90;;;;;;1884876;74;20375;-70
2022/11/12 11:54:45;;;;;;;;;;;10.80;99.90;;;;;;1882532;75;20146;-69
2022/11/12 11:57:16;;;;;;;;;;;11.00;99.90;;;;;;1876343;75;20231;-68
2022/11/12 11:59:44;;;;;;;;;;;11.30;99.90;;;;;;1854841;76;20189;-69
2022/11/12 12:02:12;;;;;;;;;;;11.30;99.90;;;;;;1883898;74;20184;-69
2022/11/12 12:04:45;;;;;;;;;;;11.60;99.90;;;;;;1887352;75;20183;-69
2022/11/12 12:07:20;;;;;;;;;;;12.20;99.90;;;;;;1883626;74;20139;-70
2022/11/12 12:10:05;;;;;;;;;;;12.90;99.90;;;;;;1891946;74;20147;-70
2022/11/12 12:12:34;;;;;;;;;;;13.40;99.90;;;;;;1884503;75;20202;-70
2022/11/12 12:15:17;;;;;;;;;;;13.40;99.90;;;;;;1877106;75;20350;-69
2022/11/12 12:17:48;;;;;;;;;;;13.00;99.90;;;;;;1879636;75;20154;-70
2022/11/12 12:20:22;;;;;;;;;;;12.80;99.90;;;;;;1882927;74;20208;-69
2022/11/12 12:22:50;;;;;;;;;;;12.80;99.90;;;;;;1885921;75;20132;-71
2022/11/12 12:25:24;;;;;;;;;;;13.00;99.90;;;;;;1884233;76;20186;-71
2022/11/12 12:27:52;;;;;;;;;;;12.90;99.90;;;;;;1878765;75;20141;-70
2022/11/12 12:30:23;;;;;;;;;;;13.00;99.90;;;;;;1865133;75;20129;-71
2022/11/12 12:32:52;;;;;;;;;;;12.60;99.90;;;;;;1884434;75;20374;-70
2022/11/12 12:35:23;;;;;;;;;;;12.50;99.90;;;;;;1877581;75;20190;-71
2022/11/12 12:37:52;;;;;;;;;;;12.70;99.90;;;;;;1887098;75;20116;-69
2022/11/12 12:40:23;;;;;;;;;;;12.80;99.90;;;;;;1887711;74;20360;-69
2022/11/12 12:42:51;;;;;;;;;;;12.80;99.90;;;;;;1883009;74;20151;-68
2022/11/12 12:45:19;;;;;;;;;;;13.00;99.90;;;;;;1893280;75;20208;-69
2022/11/12 12:47:46;;;;;;;;;;;13.20;99.90;;;;;;1887866;74;20116;-68
2022/11/12 12:50:14;;;;;;;;;;;12.90;99.90;;;;;;1879539;74;20114;-70
2022/11/12 12:52:42;;;;;;;;;;;13.00;99.90;;;;;;1880583;75;20329;-70
2022/11/12 12:55:10;;;;;;;;;;;13.20;99.90;;;;;;1871425;75;20159;-70
2022/11/12 12:57:39;;;;;;;;;;;13.20;99.90;;;;;;1867284;76;20171;-70
2022/11/12 13:00:25;;;;;;;;;;;13.00;99.90;;;;;;1890518;74;20140;-70
2022/11/12 13:02:52;;;;;;;;;;;13.10;99.90;;;;;;1890239;75;20171;-70
2022/11/12 13:05:34;;;;;;;;;;;13.00;99.90;;;;;;1890986;74;20158;-70
2022/11/12 13:08:05;;;;;;;;;;;13.10;99.90;;;;;;1884680;75;20166;-70
2022/11/12 13:10:47;;;;;;;;;;;12.90;99.90;;;;;;1878750;74;20432;-74
2022/11/12 13:13:18;;;;;;;;;;;12.90;99.90;;;;;;1876053;75;20128;-72
2022/11/12 13:15:54;;;;;;;;;;;12.80;99.90;;;;;;1888160;74;20124;-73
2022/11/12 13:18:41;;;;;;;;;;;13.00;99.90;;;;;;1877982;75;20163;-71
2022/11/12 13:21:11;;;;;;;;;;;13.00;99.90;;;;;;1880696;74;20170;-71
2022/11/12 13:24:06;;;;;;;;;;;13.20;99.90;;;;;;1876123;75;20124;-71
2022/11/12 13:26:40;;;;;;;;;;;13.20;99.90;;;;;;1887019;75;20192;-68
2022/11/12 13:29:25;;;;;;;;;;;13.30;99.90;;;;;;1891651;74;20124;-70
2022/11/12 13:31:56;;;;;;;;;;;12.90;99.90;;;;;;1887671;74;20117;-68
2022/11/12 13:34:28;;;;;;;;;;;13.50;99.90;;;;;;1881684;74;20195;-72
2022/11/12 13:36:56;;;;;;;;;;;13.90;99.90;;;;;;1886183;75;20154;-69
2022/11/12 13:39:23;;;;;;;;;;;14.20;99.90;;;;;;1892023;74;20151;-70
2022/11/12 13:44:41;;;;;;;;;;;13.60;99.90;;;;;;1878853;74;20120;-72
2022/11/12 13:47:09;;;;;;;;;;;13.40;99.90;;;;;;1871554;76;20128;-71
2022/11/12 13:49:36;;;;;;;;;;;13.10;99.90;;;;;;1866722;75;20317;-71
2022/11/12 13:52:04;;;;;;;;;;;13.10;99.90;;;;;;1876549;74;20164;-74
2022/11/12 13:54:32;;;;;;;;;;;13.00;99.90;;;;;;1881961;75;20124;-72
2022/11/12 13:57:14;;;;;;;;;;;12.80;99.90;;;;;;1876989;75;20129;-78
2022/11/12 13:59:41;;;;;;;;;;;12.90;99.90;;;;;;1879029;76;20128;-72
2022/11/12 14:02:12;;;;;;;;;;;13.10;99.90;;;;;;1891554;75;20132;-72
2022/11/12 14:04:39;;;;;;;;;;;12.90;99.90;;;;;;1889150;74;20370;-72
2022/11/12 14:07:07;;;;;;;;;;;13.00;99.90;;;;;;1881305;75;20152;-72
2022/11/12 14:09:54;;;;;;;;;;;12.90;99.90;;;;;;1878893;75;20158;-70
2022/11/12 14:12:22;;;;;;;;;;;12.90;99.90;;;;;;1875719;74;20127;-71
2022/11/12 14:15:07;;;;;;;;;;;12.90;99.90;;;;;;1888276;75;20246;-70
2022/11/12 14:17:47;;;;;;;;;;;12.70;99.90;;;;;;1887430;75;20105;-70
2022/11/12 14:20:23;;;;;;;;;;;12.80;99.90;;;;;;1834886;75;20197;-71
2022/11/12 14:22:50;;;;;;;;;;;12.80;99.90;;;;;;1889442;76;20203;-75
2022/11/12 14:25:18;;;;;;;;;;;12.70;99.90;;;;;;1881110;75;20150;-71
2022/11/12 14:27:45;;;;;;;;;;;12.70;99.90;;;;;;1881313;75;20389;-74
2022/11/12 14:30:16;;;;;;;;;;;12.60;99.90;;;;;;1882743;75;20128;-76
2022/11/12 14:32:44;;;;;;;;;;;12.50;99.90;;;;;;1880421;75;20159;-71
2022/11/12 14:35:18;;;;;;;;;;;12.40;99.90;;;;;;1887441;74;20293;-71
2022/11/12 14:37:47;;;;;;;;;;;12.10;99.90;;;;;;1889642;75;20189;-71
2022/11/12 14:40:17;;;;;;;;;;;12.10;99.90;;;;;;1876880;75;20112;-69
2022/11/12 14:42:43;;;;;;;;;;;12.20;99.90;;;;;;1889300;75;20166;-68
2022/11/12 14:45:15;;;;;;;;;;;12.20;99.90;;;;;;1894761;74;20127;-70
2022/11/12 14:47:43;;;;;;;;;;;12.10;99.90;;;;;;1878437;75;20224;-72
2022/11/12 14:50:17;;;;;;;;;;;12.20;99.90;;;;;;1887395;74;20171;-71
2022/11/12 14:52:45;;;;;;;;;;;12.40;99.90;;;;;;1885157;75;20117;-70
2022/11/12 14:55:12;;;;;;;;;;;12.40;99.90;;;;;;1878741;75;20113;-70
2022/11/12 14:57:39;;;;;;;;;;;12.40;99.90;;;;;;1885410;75;20347;-71
2022/11/12 15:00:22;;;;;;;;;;;12.20;99.90;;;;;;1884976;75;20158;-71
2022/11/12 15:02:49;;;;;;;;;;;12.00;99.90;;;;;;1882368;75;20127;-70
2022/11/12 15:05:17;;;;;;;;;;;11.80;99.90;;;;;;1856254;76;20155;-70